Dover Highway — 7JKA — position and weather

sailwx.info

Track history (hours):
 
Tides and Currents Weather Stations Pressure Air Temp Water Temp Dewpoint Dewpoint Depression Visibility Wind Speed Wind Dir Waves Ship Positions

Dover Highway

Last reported at 2017-Nov-19 16:57 UTC. Time now 2017-Nov-22 09:19 UTC.
Position N 31°08' W 081°32'.

Length 199 m; draft 9 m.

Type: Cargo ship. MMSI: 432824000.

Date/timePositionNaut miles runAvg speedWind from/ knotsBaromVisibWave heightAir tempDewpointWater temp
2017-Nov-19 16:57N 31°08' W 081°32'0 0.0
2017-Nov-19 16:30N 31°08' W 081°32'0 0.0
2017-Nov-19 15:57N 31°08' W 081°32'0 0.0
2017-Nov-19 15:21N 31°08' W 081°32'0 0.0
2017-Nov-19 14:57N 31°08' W 081°32'0 0.0
2017-Nov-19 14:27N 31°08' W 081°32'0 0.0
2017-Nov-19 13:45N 31°08' W 081°32'0 0.0
2017-Nov-19 13:27N 31°08' W 081°32'0 0.0
2017-Nov-19 13:00N 31°08' W 081°32'0 0.0
2017-Nov-19 12:27N 31°08' W 081°32'0 0.0
2017-Nov-19 11:57N 31°08' W 081°32'0 0.0
2017-Nov-19 11:27N 31°08' W 081°32'0 0.0
2017-Nov-19 11:00N 31°08' W 081°32'0 0.0
2017-Nov-19 10:30N 31°08' W 081°32'0 0.0
2017-Nov-19 09:57N 31°08' W 081°32'0 0.0
2017-Nov-19 09:15N 31°08' W 081°32'0 0.0
2017-Nov-19 08:57N 31°08' W 081°32'0 0.0
2017-Nov-19 08:30N 31°08' W 081°32'0 0.0
2017-Nov-19 07:57N 31°08' W 081°32'0 0.0
2017-Nov-19 07:27N 31°08' W 081°32'0 0.0
2017-Nov-19 06:57N 31°08' W 081°32'0 0.0
2017-Nov-19 06:27N 31°08' W 081°32'0 0.0
2017-Nov-19 05:57N 31°08' W 081°32'0 0.0
2017-Nov-19 05:30N 31°08' W 081°32'0 0.0
2017-Nov-19 04:57N 31°08' W 081°32'0 0.0
2017-Nov-19 04:27N 31°08' W 081°32'0 0.0
2017-Nov-19 03:57N 31°08' W 081°32'0 0.0
2017-Nov-19 03:15N 31°08' W 081°32'0 0.0
2017-Nov-19 02:57N 31°08' W 081°32'0 0.0
2017-Nov-19 02:30N 31°08' W 081°32'0 0.0
2017-Nov-19 01:57N 31°08' W 081°32'0 0.0
2017-Nov-19 01:27N 31°08' W 081°32'0 0.0
2017-Nov-19 01:00N 31°08' W 081°32'0 0.0
2017-Nov-19 00:30N 31°08' W 081°32'0 0.0
2017-Nov-19 00:00N 31°08' W 081°32'0 0.0
2017-Nov-18 23:30N 31°08' W 081°32'0 0.3
2017-Nov-18 23:01N 31°08' W 081°32'1 2.9
2017-Nov-18 22:30N 31°07' W 081°30'5 9.1
2017-Nov-18 22:01N 31°08' W 081°25'611.6
2017-Nov-18 21:30N 31°05' W 081°19'510.0
2017-Nov-18 21:01N 31°02' W 081°14'3 6.2
2017-Nov-18 20:30N 31°01' W 081°11'4 9.0
2017-Nov-18 20:01N 31°02' W 081°06'5 9.1
2017-Nov-18 19:30N 31°03' W 081°00'4 9.0
2017-Nov-18 19:00N 31°03' W 080°55'42915.8
2017-Nov-17 15:53N 36°47' W 075°45'5 9.6
2017-Nov-17 15:20N 36°51' W 075°51'3 9.8
2017-Nov-17 15:00N 36°53' W 075°54'5 9.8
2017-Nov-17 14:30N 36°56' W 075°58'611.4
2017-Nov-17 14:00N 37°01' W 076°02'916.4
2017-Nov-17 13:28N 37°08' W 076°08'5416.9
2017-Nov-17 10:17N 38°02' W 076°13'818.9
2017-Nov-17 09:51N 38°10' W 076°14'3917.9
2017-Nov-17 07:39N 38°48' W 076°25'318.1
2017-Nov-17 07:30N 38°51' W 076°24'917.1
2017-Nov-17 07:00N 38°59' W 076°23'713.7
2017-Nov-17 06:30N 39°06' W 076°24'612.2
2017-Nov-17 06:00N 39°11' W 076°28'5 9.6
2017-Nov-17 05:30N 39°14' W 076°33'1 2.3
2017-Nov-17 05:00N 39°15' W 076°32'0 0.0
2017-Nov-17 04:30N 39°15' W 076°32'0 0.0
2017-Nov-17 04:00N 39°15' W 076°32'0 0.0
2017-Nov-17 03:30N 39°15' W 076°32'0 0.0
2017-Nov-17 03:00N 39°15' W 076°32'0 0.0
2017-Nov-17 02:30N 39°15' W 076°32'0 0.0
2017-Nov-17 02:00N 39°15' W 076°32'0 0.0
2017-Nov-17 01:30N 39°15' W 076°32'0 0.0
2017-Nov-17 01:00N 39°15' W 076°32'0 0.0
2017-Nov-17 00:30N 39°15' W 076°32'0 0.0
2017-Nov-17 00:00N 39°15' W 076°32'0 0.0
2017-Nov-16 23:30N 39°15' W 076°32'0 0.0
2017-Nov-16 23:00N 39°15' W 076°32'0 0.0
2017-Nov-16 22:30N 39°15' W 076°32'0 0.0
2017-Nov-16 22:00N 39°15' W 076°32'0 0.0
2017-Nov-16 21:30N 39°15' W 076°32'0 0.0
2017-Nov-16 21:00N 39°15' W 076°32'0 0.0
2017-Nov-16 20:30N 39°15' W 076°32'0 0.0
2017-Nov-16 20:00N 39°15' W 076°32'0 0.0
2017-Nov-16 19:30N 39°15' W 076°32'0 0.2
2017-Nov-16 19:00N 39°15' W 076°32'1 2.2
2017-Nov-16 18:30N 39°14' W 076°33'2 3.1
2017-Nov-16 18:00N 39°15' W 076°35'0 0.0
2017-Nov-16 17:30N 39°15' W 076°35'0 0.0
2017-Nov-16 17:00N 39°15' W 076°35'0 0.0
2017-Nov-16 16:30N 39°15' W 076°35'0 0.0
2017-Nov-16 16:00N 39°15' W 076°35'0 0.0
2017-Nov-16 15:30N 39°15' W 076°35'0 0.0
2017-Nov-16 15:00N 39°15' W 076°35'0 0.0
2017-Nov-16 14:30N 39°15' W 076°35'0 0.0
2017-Nov-16 14:00N 39°15' W 076°35'0 0.0
2017-Nov-16 13:30N 39°15' W 076°35'0 0.0
2017-Nov-16 13:00N 39°15' W 076°35'0 0.0
2017-Nov-16 12:30N 39°15' W 076°35'0 0.0
2017-Nov-16 12:00N 39°15' W 076°35'0 0.0
2017-Nov-16 11:30N 39°15' W 076°35'0 0.0
2017-Nov-16 11:00N 39°15' W 076°35'0 0.0
2017-Nov-16 10:30N 39°15' W 076°35'0 0.0
2017-Nov-16 10:00N 39°15' W 076°35'0 0.0
2017-Nov-16 09:30N 39°15' W 076°35'0 0.0
2017-Nov-16 09:00N 39°15' W 076°35'0 0.0
2017-Nov-16 08:30N 39°15' W 076°35'0 0.0
2017-Nov-16 08:00N 39°15' W 076°35'0 0.0
2017-Nov-16 07:30N 39°15' W 076°35'1 1.1
2017-Nov-16 07:00N 39°15' W 076°34'1 1.6
2017-Nov-16 06:30N 39°14' W 076°34'0 0.0
2017-Nov-16 05:59N 39°14' W 076°34'0 0.0
2017-Nov-16 05:29N 39°14' W 076°34'0 0.0
2017-Nov-16 04:59N 39°14' W 076°34'0 0.0
2017-Nov-16 04:29N 39°14' W 076°34'0 0.0
2017-Nov-16 03:59N 39°14' W 076°34'0 0.0
2017-Nov-16 03:29N 39°14' W 076°34'0 0.0
2017-Nov-16 02:59N 39°14' W 076°34'0 0.0
2017-Nov-16 02:29N 39°14' W 076°34'0 0.0
2017-Nov-16 01:59N 39°14' W 076°34'0 0.0
2017-Nov-16 01:29N 39°14' W 076°34'0 0.0
2017-Nov-16 00:59N 39°14' W 076°34'0 0.0
2017-Nov-16 00:29N 39°14' W 076°34'0 0.0
2017-Nov-15 23:59N 39°14' W 076°34'0 0.0
2017-Nov-15 23:29N 39°14' W 076°34'0 0.0
2017-Nov-15 22:59N 39°14' W 076°34'0 0.0
2017-Nov-15 22:29N 39°14' W 076°34'0 0.0
2017-Nov-15 21:59N 39°14' W 076°34'0 0.0
2017-Nov-15 21:29N 39°14' W 076°34'0 0.0
2017-Nov-15 20:59N 39°14' W 076°34'0 0.0
2017-Nov-15 20:30N 39°14' W 076°34'1 1.3
2017-Nov-15 20:01N 39°15' W 076°33'3 5.7
2017-Nov-15 19:30N 39°13' W 076°31'611.6
2017-Nov-15 19:00N 39°09' W 076°25'815.3
2017-Nov-15 18:30N 39°02' W 076°23'816.7
2017-Nov-15 18:00N 38°53' W 076°24'1017.4
2017-Nov-15 17:26N 38°44' W 076°26'2017.0
2017-Nov-15 16:15N 38°24' W 076°20'417.6
2017-Nov-15 16:00N 38°20' W 076°19'1017.4
2017-Nov-15 15:24N 38°10' W 076°14'717.4
2017-Nov-15 15:00N 38°03' W 076°13'1316.9
2017-Nov-15 14:14N 37°51' W 076°09'417.2
2017-Nov-15 14:00N 37°47' W 076°11'916.5
2017-Nov-15 13:29N 37°38' W 076°07'3016.1
2017-Nov-15 11:38N 37°09' W 076°09'217.9
2017-Nov-15 11:30N 37°07' W 076°07'917.1
2017-Nov-15 11:00N 36°60' W 076°01'510.6
2017-Nov-15 10:30N 36°56' W 075°56'5 9.5
2017-Nov-15 09:59N 36°53' W 075°52'  
Track history (hours):
 
Tides and Currents Weather Stations Pressure Air Temp Water Temp Dewpoint Dewpoint Depression Visibility Wind Speed Wind Dir Waves Ship Positions

Dover Highway

Last reported at 2017-Nov-19 16:57 UTC. Time now 2017-Nov-22 09:19 UTC.
Position N 31°08' W 081°32'.

Length 199 m; draft 9 m.

Type: Cargo ship. MMSI: 432824000.

Date/timePositionNaut miles runAvg speedWind from/ knotsBaromVisibWave heightAir tempDewpointWater temp
2017-Nov-19 16:57N 31°08' W 081°32'0 0.0
2017-Nov-19 16:30N 31°08' W 081°32'0 0.0
2017-Nov-19 15:57N 31°08' W 081°32'0 0.0
2017-Nov-19 15:21N 31°08' W 081°32'0 0.0
2017-Nov-19 14:57N 31°08' W 081°32'0 0.0
2017-Nov-19 14:27N 31°08' W 081°32'0 0.0
2017-Nov-19 13:45N 31°08' W 081°32'0 0.0
2017-Nov-19 13:27N 31°08' W 081°32'0 0.0
2017-Nov-19 13:00N 31°08' W 081°32'0 0.0
2017-Nov-19 12:27N 31°08' W 081°32'0 0.0
2017-Nov-19 11:57N 31°08' W 081°32'0 0.0
2017-Nov-19 11:27N 31°08' W 081°32'0 0.0
2017-Nov-19 11:00N 31°08' W 081°32'0 0.0
2017-Nov-19 10:30N 31°08' W 081°32'0 0.0
2017-Nov-19 09:57N 31°08' W 081°32'0 0.0
2017-Nov-19 09:15N 31°08' W 081°32'0 0.0
2017-Nov-19 08:57N 31°08' W 081°32'0 0.0
2017-Nov-19 08:30N 31°08' W 081°32'0 0.0
2017-Nov-19 07:57N 31°08' W 081°32'0 0.0
2017-Nov-19 07:27N 31°08' W 081°32'0 0.0
2017-Nov-19 06:57N 31°08' W 081°32'0 0.0
2017-Nov-19 06:27N 31°08' W 081°32'0 0.0
2017-Nov-19 05:57N 31°08' W 081°32'0 0.0
2017-Nov-19 05:30N 31°08' W 081°32'0 0.0
2017-Nov-19 04:57N 31°08' W 081°32'0 0.0
2017-Nov-19 04:27N 31°08' W 081°32'0 0.0
2017-Nov-19 03:57N 31°08' W 081°32'0 0.0
2017-Nov-19 03:15N 31°08' W 081°32'0 0.0
2017-Nov-19 02:57N 31°08' W 081°32'0 0.0
2017-Nov-19 02:30N 31°08' W 081°32'0 0.0
2017-Nov-19 01:57N 31°08' W 081°32'0 0.0
2017-Nov-19 01:27N 31°08' W 081°32'0 0.0
2017-Nov-19 01:00N 31°08' W 081°32'0 0.0
2017-Nov-19 00:30N 31°08' W 081°32'0 0.0
2017-Nov-19 00:00N 31°08' W 081°32'0 0.0
2017-Nov-18 23:30N 31°08' W 081°32'0 0.3
2017-Nov-18 23:01N 31°08' W 081°32'1 2.9
2017-Nov-18 22:30N 31°07' W 081°30'5 9.1
2017-Nov-18 22:01N 31°08' W 081°25'611.6
2017-Nov-18 21:30N 31°05' W 081°19'510.0
2017-Nov-18 21:01N 31°02' W 081°14'3 6.2
2017-Nov-18 20:30N 31°01' W 081°11'4 9.0
2017-Nov-18 20:01N 31°02' W 081°06'5 9.1
2017-Nov-18 19:30N 31°03' W 081°00'4 9.0
2017-Nov-18 19:00N 31°03' W 080°55'42915.8
2017-Nov-17 15:53N 36°47' W 075°45'5 9.6
2017-Nov-17 15:20N 36°51' W 075°51'3 9.8
2017-Nov-17 15:00N 36°53' W 075°54'5 9.8
2017-Nov-17 14:30N 36°56' W 075°58'611.4
2017-Nov-17 14:00N 37°01' W 076°02'916.4
2017-Nov-17 13:28N 37°08' W 076°08'5416.9
2017-Nov-17 10:17N 38°02' W 076°13'818.9
2017-Nov-17 09:51N 38°10' W 076°14'3917.9
2017-Nov-17 07:39N 38°48' W 076°25'318.1
2017-Nov-17 07:30N 38°51' W 076°24'917.1
2017-Nov-17 07:00N 38°59' W 076°23'713.7
2017-Nov-17 06:30N 39°06' W 076°24'612.2
2017-Nov-17 06:00N 39°11' W 076°28'5 9.6
2017-Nov-17 05:30N 39°14' W 076°33'1 2.3
2017-Nov-17 05:00N 39°15' W 076°32'0 0.0
2017-Nov-17 04:30N 39°15' W 076°32'0 0.0
2017-Nov-17 04:00N 39°15' W 076°32'0 0.0
2017-Nov-17 03:30N 39°15' W 076°32'0 0.0
2017-Nov-17 03:00N 39°15' W 076°32'0 0.0
2017-Nov-17 02:30N 39°15' W 076°32'0 0.0
2017-Nov-17 02:00N 39°15' W 076°32'0 0.0
2017-Nov-17 01:30N 39°15' W 076°32'0 0.0
2017-Nov-17 01:00N 39°15' W 076°32'0 0.0
2017-Nov-17 00:30N 39°15' W 076°32'0 0.0
2017-Nov-17 00:00N 39°15' W 076°32'0 0.0
2017-Nov-16 23:30N 39°15' W 076°32'0 0.0
2017-Nov-16 23:00N 39°15' W 076°32'0 0.0
2017-Nov-16 22:30N 39°15' W 076°32'0 0.0
2017-Nov-16 22:00N 39°15' W 076°32'0 0.0
2017-Nov-16 21:30N 39°15' W 076°32'0 0.0
2017-Nov-16 21:00N 39°15' W 076°32'0 0.0
2017-Nov-16 20:30N 39°15' W 076°32'0 0.0
2017-Nov-16 20:00N 39°15' W 076°32'0 0.0
2017-Nov-16 19:30N 39°15' W 076°32'0 0.2
2017-Nov-16 19:00N 39°15' W 076°32'1 2.2
2017-Nov-16 18:30N 39°14' W 076°33'2 3.1
2017-Nov-16 18:00N 39°15' W 076°35'0 0.0
2017-Nov-16 17:30N 39°15' W 076°35'0 0.0
2017-Nov-16 17:00N 39°15' W 076°35'0 0.0
2017-Nov-16 16:30N 39°15' W 076°35'0 0.0
2017-Nov-16 16:00N 39°15' W 076°35'0 0.0
2017-Nov-16 15:30N 39°15' W 076°35'0 0.0
2017-Nov-16 15:00N 39°15' W 076°35'0 0.0
2017-Nov-16 14:30N 39°15' W 076°35'0 0.0
2017-Nov-16 14:00N 39°15' W 076°35'0 0.0
2017-Nov-16 13:30N 39°15' W 076°35'0 0.0
2017-Nov-16 13:00N 39°15' W 076°35'0 0.0
2017-Nov-16 12:30N 39°15' W 076°35'0 0.0
2017-Nov-16 12:00N 39°15' W 076°35'0 0.0
2017-Nov-16 11:30N 39°15' W 076°35'0 0.0
2017-Nov-16 11:00N 39°15' W 076°35'0 0.0
2017-Nov-16 10:30N 39°15' W 076°35'0 0.0
2017-Nov-16 10:00N 39°15' W 076°35'0 0.0
2017-Nov-16 09:30N 39°15' W 076°35'0 0.0
2017-Nov-16 09:00N 39°15' W 076°35'0 0.0
2017-Nov-16 08:30N 39°15' W 076°35'0 0.0
2017-Nov-16 08:00N 39°15' W 076°35'0 0.0
2017-Nov-16 07:30N 39°15' W 076°35'1 1.1
2017-Nov-16 07:00N 39°15' W 076°34'1 1.6
2017-Nov-16 06:30N 39°14' W 076°34'0 0.0
2017-Nov-16 05:59N 39°14' W 076°34'0 0.0
2017-Nov-16 05:29N 39°14' W 076°34'0 0.0
2017-Nov-16 04:59N 39°14' W 076°34'0 0.0
2017-Nov-16 04:29N 39°14' W 076°34'0 0.0
2017-Nov-16 03:59N 39°14' W 076°34'0 0.0
2017-Nov-16 03:29N 39°14' W 076°34'0 0.0
2017-Nov-16 02:59N 39°14' W 076°34'0 0.0
2017-Nov-16 02:29N 39°14' W 076°34'0 0.0
2017-Nov-16 01:59N 39°14' W 076°34'0 0.0
2017-Nov-16 01:29N 39°14' W 076°34'0 0.0
2017-Nov-16 00:59N 39°14' W 076°34'0 0.0
2017-Nov-16 00:29N 39°14' W 076°34'0 0.0
2017-Nov-15 23:59N 39°14' W 076°34'0 0.0
2017-Nov-15 23:29N 39°14' W 076°34'0 0.0
2017-Nov-15 22:59N 39°14' W 076°34'0 0.0
2017-Nov-15 22:29N 39°14' W 076°34'0 0.0
2017-Nov-15 21:59N 39°14' W 076°34'0 0.0
2017-Nov-15 21:29N 39°14' W 076°34'0 0.0
2017-Nov-15 20:59N 39°14' W 076°34'0 0.0
2017-Nov-15 20:30N 39°14' W 076°34'1 1.3
2017-Nov-15 20:01N 39°15' W 076°33'3 5.7
2017-Nov-15 19:30N 39°13' W 076°31'611.6
2017-Nov-15 19:00N 39°09' W 076°25'815.3
2017-Nov-15 18:30N 39°02' W 076°23'816.7
2017-Nov-15 18:00N 38°53' W 076°24'1017.4
2017-Nov-15 17:26N 38°44' W 076°26'2017.0
2017-Nov-15 16:15N 38°24' W 076°20'417.6
2017-Nov-15 16:00N 38°20' W 076°19'1017.4
2017-Nov-15 15:24N 38°10' W 076°14'717.4
2017-Nov-15 15:00N 38°03' W 076°13'1316.9
2017-Nov-15 14:14N 37°51' W 076°09'417.2
2017-Nov-15 14:00N 37°47' W 076°11'916.5
2017-Nov-15 13:29N 37°38' W 076°07'3016.1
2017-Nov-15 11:38N 37°09' W 076°09'217.9
2017-Nov-15 11:30N 37°07' W 076°07'917.1
2017-Nov-15 11:00N 36°60' W 076°01'510.6
2017-Nov-15 10:30N 36°56' W 075°56'5 9.5
2017-Nov-15 09:59N 36°53' W 075°52'  

Dump ship's entire track history